MET'MAP v2.0
soon released !

Expected late october,
this new version will be
more efficient, smarter,
and hosted on a brand new
server x3 powerfull...
...and still free !


Not compatible ?
Try the mobile version !

LOG IN : | Subscribe | Disclaimer | Who is Orbifly ? |
ICAO code :

TAF - GMAD Al Massira Int. - 21 Oct 2020 01:07 UTC - Data Source NOAA   


- Airport Elevation : 250 ft
- IATA code : AGA
- No reported NOTAMs.


GMAD - Al Massira Int.

Latest METAR recorded : 2015/08/11 08:00 GMAD 110800Z 26007KT 8000 NSC 24/19 Q1012 NOSIG
TAF TAF GMAD
Valid from the 20 at 18:00 until the 22 at 00:00 UTC


201700Z 2018/2124 16008KT 8000 SCT016 BKN100
TEMPO 2022/2112 RA
BECMG 2111/2113 22008KT BKN016 BKN100

Source NOAA


MET'MAP, your aeronautical weather chart ! - Copyright ORBIFLY December 2007

Programming & Development : Alexandra Zaïnal
Co-Developer : Marc-Olivier Méhu
Technical & hardware support : Manuel Goepfert
Concept & Financing : Baudouin d'Aumeries